Terminal Aerodrome Forecast
Issued by NWS

Current Version | Previous Version | Graphics & Text | Print | Product List | Glossary On
Versions: 1 2 3 4 5 6 7 8 9 10 11 12 13 14 15 16 17 18 19 20 21 22 23 24 25
000
FTUS41 KILN 152300
TAFLUK
TAF
KLUK 152329Z 1600/1624 22005KT P6SM -SHRA BKN040 OVC080
      TEMPO 1600/1602 4SM SHRA
     FM160300 28005KT P6SM VCSH OVC040
     FM160500 32006KT P6SM VCSH OVC015
     FM160700 36008KT 4SM BR OVC009
     FM161500 01008KT P6SM OVC018
     FM161700 01008KT P6SM BKN028
     FM161900 01008KT P6SM BKN040=

USA.gov is the U.S. government's official web portal to all federal, state and local government web resources and services.